Tapera, Brazil
Current Conditions -  °F | °C
As of 1:00 PM on Thursday 30 Oct 2014 (Local Time) from SBPF Reporting Station
Overcast Overcast  
Wind Chill: 73°   Ceiling: 9000
Heat Index: 73°   Visibility: 6mi
Dew Point: 66°   Wind: 5mph
Humidity: 78%   Direction: 180°S
Pressure: 29.85"   Gusts: NA
Location:  28.63°S, 52.87°W
Report Text: SBPF 301500Z 18004KT 9999 FEW045 SCT070 OVC090 23/19 Q1011
Loading
Personal Weather Stations






























Interactive Weather Map New forecast layout! Learn more

10-Day Weather Forecast

Advertisements
Track Severe Weather on mobile